sensor_id;sensor_type;location;lat;lon;timestamp;P1;durP1;ratioP1;P2;durP2;ratioP2
41755;SDS011;27435;48.480;9.258;2022-11-15T00:00:17;11.40;;;1.30;;
41755;SDS011;27435;48.480;9.258;2022-11-15T00:02:43;4.03;;;1.20;;
41755;SDS011;27435;48.480;9.258;2022-11-15T00:05:08;3.80;;;1.50;;
41755;SDS011;27435;48.480;9.258;2022-11-15T00:07:34;3.20;;;0.83;;
41755;SDS011;27435;48.480;9.258;2022-11-15T00:09:59;1.87;;;0.90;;
41755;SDS011;27435;48.480;9.258;2022-11-15T00:12:26;5.10;;;1.10;;
41755;SDS011;27435;48.480;9.258;2022-11-15T00:14:52;2.83;;;1.33;;
41755;SDS011;27435;48.480;9.258;2022-11-15T00:17:18;4.80;;;1.17;;
41755;SDS011;27435;48.480;9.258;2022-11-15T00:19:44;3.67;;;1.03;;
41755;SDS011;27435;48.480;9.258;2022-11-15T00:22:10;2.77;;;1.37;;
41755;SDS011;27435;48.480;9.258;2022-11-15T00:24:35;2.03;;;0.90;;
41755;SDS011;27435;48.480;9.258;2022-11-15T00:27:01;3.43;;;1.13;;
41755;SDS011;27435;48.480;9.258;2022-11-15T00:29:26;1.77;;;1.00;;
41755;SDS011;27435;48.480;9.258;2022-11-15T00:31:52;3.27;;;1.17;;
41755;SDS011;27435;48.480;9.258;2022-11-15T00:34:18;2.00;;;1.00;;
41755;SDS011;27435;48.480;9.258;2022-11-15T00:36:43;4.53;;;1.67;;
41755;SDS011;27435;48.480;9.258;2022-11-15T00:39:09;1.77;;;1.10;;
41755;SDS011;27435;48.480;9.258;2022-11-15T00:41:35;4.17;;;1.10;;
41755;SDS011;27435;48.480;9.258;2022-11-15T00:44:00;5.33;;;1.30;;
41755;SDS011;27435;48.480;9.258;2022-11-15T00:46:26;3.37;;;1.07;;
41755;SDS011;27435;48.480;9.258;2022-11-15T00:48:51;2.93;;;1.20;;
41755;SDS011;27435;48.480;9.258;2022-11-15T00:51:17;4.20;;;1.27;;
41755;SDS011;27435;48.480;9.258;2022-11-15T00:53:43;4.80;;;1.10;;
41755;SDS011;27435;48.480;9.258;2022-11-15T00:56:08;2.30;;;0.90;;
41755;SDS011;27435;48.480;9.258;2022-11-15T00:58:34;3.07;;;1.20;;
41755;SDS011;27435;48.480;9.258;2022-11-15T01:01:06;1.80;;;1.00;;
41755;SDS011;27435;48.480;9.258;2022-11-15T01:03:37;3.47;;;1.17;;
41755;SDS011;27435;48.480;9.258;2022-11-15T01:06:03;2.37;;;1.20;;
41755;SDS011;27435;48.480;9.258;2022-11-15T01:08:30;4.23;;;1.33;;
41755;SDS011;27435;48.480;9.258;2022-11-15T01:11:09;3.20;;;1.03;;
41755;SDS011;27435;48.480;9.258;2022-11-15T01:13:37;4.40;;;1.70;;
41755;SDS011;27435;48.480;9.258;2022-11-15T01:16:14;2.50;;;1.20;;
41755;SDS011;27435;48.480;9.258;2022-11-15T01:18:44;3.07;;;0.80;;
41755;SDS011;27435;48.480;9.258;2022-11-15T01:21:12;2.80;;;1.30;;
41755;SDS011;27435;48.480;9.258;2022-11-15T01:23:40;3.77;;;1.00;;
41755;SDS011;27435;48.480;9.258;2022-11-15T01:26:07;3.20;;;1.10;;
41755;SDS011;27435;48.480;9.258;2022-11-15T01:28:35;3.80;;;1.57;;
41755;SDS011;27435;48.480;9.258;2022-11-15T01:31:03;3.23;;;1.10;;
41755;SDS011;27435;48.480;9.258;2022-11-15T01:33:30;3.03;;;1.00;;
41755;SDS011;27435;48.480;9.258;2022-11-15T01:35:58;5.17;;;1.10;;
41755;SDS011;27435;48.480;9.258;2022-11-15T01:38:29;5.20;;;1.60;;
41755;SDS011;27435;48.480;9.258;2022-11-15T01:40:54;3.23;;;1.40;;
41755;SDS011;27435;48.480;9.258;2022-11-15T01:43:21;4.63;;;1.53;;
41755;SDS011;27435;48.480;9.258;2022-11-15T01:45:53;3.73;;;1.20;;
41755;SDS011;27435;48.480;9.258;2022-11-15T01:48:27;4.33;;;1.30;;
41755;SDS011;27435;48.480;9.258;2022-11-15T01:50:58;4.80;;;1.27;;
41755;SDS011;27435;48.480;9.258;2022-11-15T01:53:26;2.60;;;1.20;;
41755;SDS011;27435;48.480;9.258;2022-11-15T01:55:54;2.70;;;1.50;;
41755;SDS011;27435;48.480;9.258;2022-11-15T01:58:21;3.03;;;1.30;;
41755;SDS011;27435;48.480;9.258;2022-11-15T02:00:47;3.53;;;1.10;;
41755;SDS011;27435;48.480;9.258;2022-11-15T02:03:14;4.23;;;1.37;;
41755;SDS011;27435;48.480;9.258;2022-11-15T02:05:40;2.50;;;1.40;;
41755;SDS011;27435;48.480;9.258;2022-11-15T02:08:06;2.57;;;1.40;;
41755;SDS011;27435;48.480;9.258;2022-11-15T02:10:33;4.93;;;1.33;;
41755;SDS011;27435;48.480;9.258;2022-11-15T02:12:59;5.60;;;1.80;;
41755;SDS011;27435;48.480;9.258;2022-11-15T02:15:26;2.33;;;1.13;;
41755;SDS011;27435;48.480;9.258;2022-11-15T02:18:07;2.87;;;1.10;;
41755;SDS011;27435;48.480;9.258;2022-11-15T02:20:48;4.33;;;1.00;;
41755;SDS011;27435;48.480;9.258;2022-11-15T02:29:14;2.33;;;1.03;;
41755;SDS011;27435;48.480;9.258;2022-11-15T02:32:01;2.00;;;1.03;;
41755;SDS011;27435;48.480;9.258;2022-11-15T02:37:20;4.80;;;1.30;;
41755;SDS011;27435;48.480;9.258;2022-11-15T02:42:32;4.30;;;1.27;;
41755;SDS011;27435;48.480;9.258;2022-11-15T02:45:24;2.97;;;0.70;;
41755;SDS011;27435;48.480;9.258;2022-11-15T02:47:54;3.27;;;1.00;;
41755;SDS011;27435;48.480;9.258;2022-11-15T02:50:23;7.60;;;0.93;;
41755;SDS011;27435;48.480;9.258;2022-11-15T02:52:52;3.80;;;1.03;;
41755;SDS011;27435;48.480;9.258;2022-11-15T02:55:31;3.30;;;1.10;;
41755;SDS011;27435;48.480;9.258;2022-11-15T02:58:01;3.00;;;0.90;;
41755;SDS011;27435;48.480;9.258;2022-11-15T03:06:35;5.00;;;1.40;;
41755;SDS011;27435;48.480;9.258;2022-11-15T03:09:19;2.67;;;1.00;;
41755;SDS011;27435;48.480;9.258;2022-11-15T03:12:04;3.07;;;1.53;;
41755;SDS011;27435;48.480;9.258;2022-11-15T03:14:52;4.97;;;0.80;;
41755;SDS011;27435;48.480;9.258;2022-11-15T03:17:36;3.00;;;0.73;;
41755;SDS011;27435;48.480;9.258;2022-11-15T03:20:06;1.67;;;0.83;;
41755;SDS011;27435;48.480;9.258;2022-11-15T03:22:35;3.67;;;1.10;;
41755;SDS011;27435;48.480;9.258;2022-11-15T03:25:04;4.10;;;1.10;;
41755;SDS011;27435;48.480;9.258;2022-11-15T03:27:35;2.50;;;1.20;;
41755;SDS011;27435;48.480;9.258;2022-11-15T03:30:07;4.23;;;0.80;;
41755;SDS011;27435;48.480;9.258;2022-11-15T03:32:38;5.53;;;1.07;;
41755;SDS011;27435;48.480;9.258;2022-11-15T03:35:09;8.57;;;1.30;;
41755;SDS011;27435;48.480;9.258;2022-11-15T03:37:59;2.60;;;1.20;;
41755;SDS011;27435;48.480;9.258;2022-11-15T03:40:50;3.10;;;1.10;;
41755;SDS011;27435;48.480;9.258;2022-11-15T03:43:36;3.70;;;1.00;;
41755;SDS011;27435;48.480;9.258;2022-11-15T03:46:11;3.87;;;1.10;;
41755;SDS011;27435;48.480;9.258;2022-11-15T03:48:47;2.10;;;1.00;;
41755;SDS011;27435;48.480;9.258;2022-11-15T03:51:16;6.47;;;1.60;;
41755;SDS011;27435;48.480;9.258;2022-11-15T03:53:42;2.00;;;1.00;;
41755;SDS011;27435;48.480;9.258;2022-11-15T03:56:08;3.23;;;1.10;;
41755;SDS011;27435;48.480;9.258;2022-11-15T03:58:34;3.60;;;1.00;;
41755;SDS011;27435;48.480;9.258;2022-11-15T04:00:59;4.00;;;0.90;;
41755;SDS011;27435;48.480;9.258;2022-11-15T04:03:25;3.63;;;0.83;;
41755;SDS011;27435;48.480;9.258;2022-11-15T04:05:51;1.70;;;0.90;;
41755;SDS011;27435;48.480;9.258;2022-11-15T04:08:16;1.90;;;0.90;;
41755;SDS011;27435;48.480;9.258;2022-11-15T04:10:42;3.77;;;1.10;;
41755;SDS011;27435;48.480;9.258;2022-11-15T04:13:08;4.53;;;1.00;;
41755;SDS011;27435;48.480;9.258;2022-11-15T04:15:33;1.90;;;0.90;;
41755;SDS011;27435;48.480;9.258;2022-11-15T04:17:59;2.20;;;0.73;;
41755;SDS011;27435;48.480;9.258;2022-11-15T04:20:26;4.47;;;0.93;;
41755;SDS011;27435;48.480;9.258;2022-11-15T04:23:12;3.00;;;1.40;;
41755;SDS011;27435;48.480;9.258;2022-11-15T04:26:01;2.37;;;1.03;;
41755;SDS011;27435;48.480;9.258;2022-11-15T04:28:32;4.37;;;1.40;;
41755;SDS011;27435;48.480;9.258;2022-11-15T04:30:58;2.50;;;0.93;;
41755;SDS011;27435;48.480;9.258;2022-11-15T04:33:24;1.70;;;0.90;;
41755;SDS011;27435;48.480;9.258;2022-11-15T04:35:50;4.97;;;1.33;;
41755;SDS011;27435;48.480;9.258;2022-11-15T04:38:35;2.53;;;0.90;;
41755;SDS011;27435;48.480;9.258;2022-11-15T04:41:01;3.07;;;1.03;;
41755;SDS011;27435;48.480;9.258;2022-11-15T04:43:27;5.13;;;1.00;;
41755;SDS011;27435;48.480;9.258;2022-11-15T04:45:53;3.30;;;1.13;;
41755;SDS011;27435;48.480;9.258;2022-11-15T04:48:19;3.23;;;1.20;;
41755;SDS011;27435;48.480;9.258;2022-11-15T04:50:47;3.60;;;1.00;;
41755;SDS011;27435;48.480;9.258;2022-11-15T04:53:13;2.63;;;0.90;;
41755;SDS011;27435;48.480;9.258;2022-11-15T04:55:38;2.57;;;0.93;;
41755;SDS011;27435;48.480;9.258;2022-11-15T04:58:04;3.27;;;1.23;;
41755;SDS011;27435;48.480;9.258;2022-11-15T05:00:29;2.40;;;1.07;;
41755;SDS011;27435;48.480;9.258;2022-11-15T05:02:56;3.57;;;1.30;;
41755;SDS011;27435;48.480;9.258;2022-11-15T05:05:40;7.20;;;1.40;;
41755;SDS011;27435;48.480;9.258;2022-11-15T05:08:06;3.90;;;1.13;;
41755;SDS011;27435;48.480;9.258;2022-11-15T05:10:32;2.70;;;1.20;;
41755;SDS011;27435;48.480;9.258;2022-11-15T05:12:58;5.50;;;1.10;;
41755;SDS011;27435;48.480;9.258;2022-11-15T05:15:23;3.10;;;1.33;;
41755;SDS011;27435;48.480;9.258;2022-11-15T05:17:49;2.83;;;1.10;;
41755;SDS011;27435;48.480;9.258;2022-11-15T05:20:15;2.47;;;1.30;;
41755;SDS011;27435;48.480;9.258;2022-11-15T05:22:40;3.17;;;1.30;;
41755;SDS011;27435;48.480;9.258;2022-11-15T05:25:06;3.17;;;1.40;;
41755;SDS011;27435;48.480;9.258;2022-11-15T05:27:33;2.03;;;1.00;;
41755;SDS011;27435;48.480;9.258;2022-11-15T05:29:59;7.87;;;1.40;;
41755;SDS011;27435;48.480;9.258;2022-11-15T05:32:24;3.00;;;1.50;;
41755;SDS011;27435;48.480;9.258;2022-11-15T05:34:50;3.53;;;1.40;;
41755;SDS011;27435;48.480;9.258;2022-11-15T05:37:16;2.73;;;1.20;;
41755;SDS011;27435;48.480;9.258;2022-11-15T05:39:43;3.47;;;1.23;;
41755;SDS011;27435;48.480;9.258;2022-11-15T05:42:12;1.93;;;1.10;;
41755;SDS011;27435;48.480;9.258;2022-11-15T05:44:40;2.57;;;1.20;;
41755;SDS011;27435;48.480;9.258;2022-11-15T05:47:10;3.10;;;1.10;;
41755;SDS011;27435;48.480;9.258;2022-11-15T05:49:39;3.17;;;1.20;;
41755;SDS011;27435;48.480;9.258;2022-11-15T05:52:08;3.10;;;1.40;;
41755;SDS011;27435;48.480;9.258;2022-11-15T05:54:36;2.27;;;1.20;;
41755;SDS011;27435;48.480;9.258;2022-11-15T05:57:03;3.63;;;0.93;;
41755;SDS011;27435;48.480;9.258;2022-11-15T05:59:31;2.57;;;1.03;;
41755;SDS011;27435;48.480;9.258;2022-11-15T06:01:57;2.93;;;1.10;;
41755;SDS011;27435;48.480;9.258;2022-11-15T06:04:23;2.83;;;1.53;;
41755;SDS011;27435;48.480;9.258;2022-11-15T06:06:49;3.57;;;1.47;;
41755;SDS011;27435;48.480;9.258;2022-11-15T06:09:15;2.03;;;1.10;;
41755;SDS011;27435;48.480;9.258;2022-11-15T06:11:40;4.77;;;1.10;;
41755;SDS011;27435;48.480;9.258;2022-11-15T06:14:06;2.87;;;1.20;;
41755;SDS011;27435;48.480;9.258;2022-11-15T06:16:31;2.40;;;1.20;;
41755;SDS011;27435;48.480;9.258;2022-11-15T06:18:57;2.60;;;0.93;;
41755;SDS011;27435;48.480;9.258;2022-11-15T06:21:23;5.50;;;1.20;;
41755;SDS011;27435;48.480;9.258;2022-11-15T06:23:49;3.60;;;1.20;;
41755;SDS011;27435;48.480;9.258;2022-11-15T06:26:14;3.90;;;1.20;;
41755;SDS011;27435;48.480;9.258;2022-11-15T06:28:40;2.93;;;1.63;;
41755;SDS011;27435;48.480;9.258;2022-11-15T06:31:07;4.03;;;1.40;;
41755;SDS011;27435;48.480;9.258;2022-11-15T06:33:35;3.33;;;1.63;;
41755;SDS011;27435;48.480;9.258;2022-11-15T06:36:02;2.97;;;1.40;;
41755;SDS011;27435;48.480;9.258;2022-11-15T06:38:28;4.70;;;1.30;;
41755;SDS011;27435;48.480;9.258;2022-11-15T06:40:54;5.73;;;1.73;;
41755;SDS011;27435;48.480;9.258;2022-11-15T06:43:25;4.70;;;1.63;;
41755;SDS011;27435;48.480;9.258;2022-11-15T06:45:51;3.17;;;1.60;;
41755;SDS011;27435;48.480;9.258;2022-11-15T06:48:16;2.93;;;1.43;;
41755;SDS011;27435;48.480;9.258;2022-11-15T06:50:42;3.03;;;1.50;;
41755;SDS011;27435;48.480;9.258;2022-11-15T06:53:07;3.37;;;1.50;;
41755;SDS011;27435;48.480;9.258;2022-11-15T06:55:33;3.20;;;1.30;;
41755;SDS011;27435;48.480;9.258;2022-11-15T06:57:59;3.40;;;1.73;;
41755;SDS011;27435;48.480;9.258;2022-11-15T07:00:24;7.80;;;2.60;;
41755;SDS011;27435;48.480;9.258;2022-11-15T07:02:50;3.37;;;1.83;;
41755;SDS011;27435;48.480;9.258;2022-11-15T07:05:15;4.90;;;1.43;;
41755;SDS011;27435;48.480;9.258;2022-11-15T07:07:41;5.50;;;2.17;;
41755;SDS011;27435;48.480;9.258;2022-11-15T07:10:07;3.03;;;1.40;;
41755;SDS011;27435;48.480;9.258;2022-11-15T07:12:33;5.10;;;1.93;;
41755;SDS011;27435;48.480;9.258;2022-11-15T07:15:00;4.37;;;1.90;;
41755;SDS011;27435;48.480;9.258;2022-11-15T07:17:26;2.63;;;1.43;;
41755;SDS011;27435;48.480;9.258;2022-11-15T07:19:51;4.57;;;1.60;;
41755;SDS011;27435;48.480;9.258;2022-11-15T07:22:17;3.67;;;1.50;;
41755;SDS011;27435;48.480;9.258;2022-11-15T07:24:42;5.60;;;1.30;;
41755;SDS011;27435;48.480;9.258;2022-11-15T07:27:08;4.53;;;1.50;;
41755;SDS011;27435;48.480;9.258;2022-11-15T07:29:34;4.53;;;1.70;;
41755;SDS011;27435;48.480;9.258;2022-11-15T07:31:59;3.47;;;1.70;;
41755;SDS011;27435;48.480;9.258;2022-11-15T07:34:25;3.27;;;1.50;;
41755;SDS011;27435;48.480;9.258;2022-11-15T07:36:51;3.47;;;1.20;;
41755;SDS011;27435;48.480;9.258;2022-11-15T07:39:16;3.30;;;1.67;;
41755;SDS011;27435;48.480;9.258;2022-11-15T07:41:42;2.37;;;1.40;;
41755;SDS011;27435;48.480;9.258;2022-11-15T07:44:08;4.13;;;1.80;;
41755;SDS011;27435;48.480;9.258;2022-11-15T07:46:34;3.60;;;1.50;;
41755;SDS011;27435;48.480;9.258;2022-11-15T07:48:59;4.30;;;1.30;;
41755;SDS011;27435;48.480;9.258;2022-11-15T07:51:25;4.93;;;1.40;;
41755;SDS011;27435;48.480;9.258;2022-11-15T07:53:51;6.10;;;1.67;;
41755;SDS011;27435;48.480;9.258;2022-11-15T07:56:16;9.27;;;1.27;;
41755;SDS011;27435;48.480;9.258;2022-11-15T07:58:42;3.10;;;1.30;;
41755;SDS011;27435;48.480;9.258;2022-11-15T08:01:10;4.70;;;1.33;;
41755;SDS011;27435;48.480;9.258;2022-11-15T08:03:36;3.13;;;1.13;;
41755;SDS011;27435;48.480;9.258;2022-11-15T08:06:02;3.17;;;1.10;;
41755;SDS011;27435;48.480;9.258;2022-11-15T08:08:27;4.93;;;1.30;;
41755;SDS011;27435;48.480;9.258;2022-11-15T08:10:53;2.60;;;1.30;;
41755;SDS011;27435;48.480;9.258;2022-11-15T08:13:19;9.90;;;4.17;;
41755;SDS011;27435;48.480;9.258;2022-11-15T08:15:45;3.60;;;1.67;;
41755;SDS011;27435;48.480;9.258;2022-11-15T08:18:11;3.47;;;1.20;;
41755;SDS011;27435;48.480;9.258;2022-11-15T08:20:39;5.93;;;2.50;;
41755;SDS011;27435;48.480;9.258;2022-11-15T08:23:05;4.03;;;1.00;;
41755;SDS011;27435;48.480;9.258;2022-11-15T08:25:32;4.87;;;2.00;;
41755;SDS011;27435;48.480;9.258;2022-11-15T08:27:59;4.10;;;2.10;;
41755;SDS011;27435;48.480;9.258;2022-11-15T08:30:27;3.00;;;1.53;;
41755;SDS011;27435;48.480;9.258;2022-11-15T08:32:53;4.00;;;1.60;;
41755;SDS011;27435;48.480;9.258;2022-11-15T08:35:21;4.43;;;1.67;;
41755;SDS011;27435;48.480;9.258;2022-11-15T08:37:46;3.67;;;1.70;;
41755;SDS011;27435;48.480;9.258;2022-11-15T08:40:12;3.30;;;1.60;;
41755;SDS011;27435;48.480;9.258;2022-11-15T08:42:39;2.53;;;1.53;;
41755;SDS011;27435;48.480;9.258;2022-11-15T08:45:05;3.03;;;1.23;;
41755;SDS011;27435;48.480;9.258;2022-11-15T08:47:31;3.93;;;1.50;;
41755;SDS011;27435;48.480;9.258;2022-11-15T08:49:57;2.90;;;1.33;;
41755;SDS011;27435;48.480;9.258;2022-11-15T08:52:23;4.27;;;1.47;;
41755;SDS011;27435;48.480;9.258;2022-11-15T08:54:49;4.93;;;1.50;;
41755;SDS011;27435;48.480;9.258;2022-11-15T08:57:15;2.30;;;1.13;;
41755;SDS011;27435;48.480;9.258;2022-11-15T08:59:40;2.93;;;1.00;;
41755;SDS011;27435;48.480;9.258;2022-11-15T09:02:06;3.43;;;1.20;;
41755;SDS011;27435;48.480;9.258;2022-11-15T09:04:36;4.13;;;1.20;;
41755;SDS011;27435;48.480;9.258;2022-11-15T09:07:02;2.47;;;1.27;;
41755;SDS011;27435;48.480;9.258;2022-11-15T09:09:27;3.97;;;1.30;;
41755;SDS011;27435;48.480;9.258;2022-11-15T09:11:53;2.77;;;1.50;;
41755;SDS011;27435;48.480;9.258;2022-11-15T09:14:18;2.57;;;1.20;;
41755;SDS011;27435;48.480;9.258;2022-11-15T09:16:44;2.80;;;1.50;;
41755;SDS011;27435;48.480;9.258;2022-11-15T09:19:10;3.27;;;1.10;;
41755;SDS011;27435;48.480;9.258;2022-11-15T09:21:35;2.60;;;1.57;;
41755;SDS011;27435;48.480;9.258;2022-11-15T09:24:01;3.13;;;1.20;;
41755;SDS011;27435;48.480;9.258;2022-11-15T09:26:27;2.70;;;1.40;;
41755;SDS011;27435;48.480;9.258;2022-11-15T09:28:53;2.37;;;1.20;;
41755;SDS011;27435;48.480;9.258;2022-11-15T09:31:18;3.60;;;1.30;;
41755;SDS011;27435;48.480;9.258;2022-11-15T09:33:44;4.63;;;1.10;;
41755;SDS011;27435;48.480;9.258;2022-11-15T09:36:11;2.77;;;0.97;;
41755;SDS011;27435;48.480;9.258;2022-11-15T09:38:37;4.60;;;1.10;;
41755;SDS011;27435;48.480;9.258;2022-11-15T09:46:16;4.67;;;1.00;;
41755;SDS011;27435;48.480;9.258;2022-11-15T09:48:55;4.63;;;1.40;;
41755;SDS011;27435;48.480;9.258;2022-11-15T09:51:27;3.92;;;1.70;;
41755;SDS011;27435;48.480;9.258;2022-11-15T09:53:57;3.42;;;1.67;;
41755;SDS011;27435;48.480;9.258;2022-11-15T09:56:35;6.90;;;2.63;;
41755;SDS011;27435;48.480;9.258;2022-11-15T09:59:16;9.90;;;2.25;;
41755;SDS011;27435;48.480;9.258;2022-11-15T10:04:47;7.30;;;3.03;;
41755;SDS011;27435;48.480;9.258;2022-11-15T10:07:19;5.03;;;2.00;;
41755;SDS011;27435;48.480;9.258;2022-11-15T10:10:04;6.97;;;3.50;;
41755;SDS011;27435;48.480;9.258;2022-11-15T10:12:36;9.60;;;3.55;;
41755;SDS011;27435;48.480;9.258;2022-11-15T10:15:12;6.30;;;2.88;;
41755;SDS011;27435;48.480;9.258;2022-11-15T10:20:23;7.28;;;3.28;;
41755;SDS011;27435;48.480;9.258;2022-11-15T10:22:52;8.27;;;3.67;;
41755;SDS011;27435;48.480;9.258;2022-11-15T10:25:22;8.82;;;3.85;;
41755;SDS011;27435;48.480;9.258;2022-11-15T10:27:51;11.80;;;4.50;;
41755;SDS011;27435;48.480;9.258;2022-11-15T10:30:21;8.13;;;3.78;;
41755;SDS011;27435;48.480;9.258;2022-11-15T10:32:48;8.75;;;4.10;;
41755;SDS011;27435;48.480;9.258;2022-11-15T10:35:28;13.40;;;4.78;;
41755;SDS011;27435;48.480;9.258;2022-11-15T10:38:04;12.43;;;4.45;;
41755;SDS011;27435;48.480;9.258;2022-11-15T10:40:32;14.65;;;5.07;;
41755;SDS011;27435;48.480;9.258;2022-11-15T10:45:41;15.90;;;4.68;;
41755;SDS011;27435;48.480;9.258;2022-11-15T10:50:45;10.43;;;4.50;;
41755;SDS011;27435;48.480;9.258;2022-11-15T11:01:16;10.40;;;4.75;;
41755;SDS011;27435;48.480;9.258;2022-11-15T11:03:44;15.27;;;5.00;;
41755;SDS011;27435;48.480;9.258;2022-11-15T11:06:22;21.27;;;7.15;;
41755;SDS011;27435;48.480;9.258;2022-11-15T11:12:10;9.80;;;4.80;;
41755;SDS011;27435;48.480;9.258;2022-11-15T11:14:37;9.82;;;4.53;;
41755;SDS011;27435;48.480;9.258;2022-11-15T11:31:54;14.27;;;6.40;;
41755;SDS011;27435;48.480;9.258;2022-11-15T11:34:36;10.75;;;5.05;;
41755;SDS011;27435;48.480;9.258;2022-11-15T11:37:29;9.13;;;4.22;;
41755;SDS011;27435;48.480;9.258;2022-11-15T11:40:20;7.90;;;4.68;;
41755;SDS011;27435;48.480;9.258;2022-11-15T11:50:38;8.35;;;3.90;;
41755;SDS011;27435;48.480;9.258;2022-11-15T11:56:05;10.93;;;4.18;;
41755;SDS011;27435;48.480;9.258;2022-11-15T11:58:44;14.93;;;4.18;;
41755;SDS011;27435;48.480;9.258;2022-11-15T12:01:32;10.43;;;3.97;;
41755;SDS011;27435;48.480;9.258;2022-11-15T12:06:47;11.13;;;4.00;;
41755;SDS011;27435;48.480;9.258;2022-11-15T12:12:11;12.77;;;6.20;;
41755;SDS011;27435;48.480;9.258;2022-11-15T12:15:01;55.17;;;25.60;;
41755;SDS011;27435;48.480;9.258;2022-11-15T12:17:50;14.88;;;7.45;;
41755;SDS011;27435;48.480;9.258;2022-11-15T12:20:20;10.00;;;4.53;;
41755;SDS011;27435;48.480;9.258;2022-11-15T12:31:02;9.40;;;4.97;;
41755;SDS011;27435;48.480;9.258;2022-11-15T12:33:42;8.63;;;4.88;;
41755;SDS011;27435;48.480;9.258;2022-11-15T12:42:34;22.85;;;7.10;;
41755;SDS011;27435;48.480;9.258;2022-11-15T13:00:36;11.73;;;4.45;;
41755;SDS011;27435;48.480;9.258;2022-11-15T13:02:31;14.90;;;5.03;;
41755;SDS011;27435;48.480;9.258;2022-11-15T13:10:47;12.32;;;4.97;;
41755;SDS011;27435;48.480;9.258;2022-11-15T13:17:56;11.15;;;4.45;;
41755;SDS011;27435;48.480;9.258;2022-11-15T13:30:59;16.50;;;8.20;;
41755;SDS011;27435;48.480;9.258;2022-11-15T13:33:39;11.73;;;4.18;;
41755;SDS011;27435;48.480;9.258;2022-11-15T13:36:06;8.90;;;4.05;;
41755;SDS011;27435;48.480;9.258;2022-11-15T13:38:54;6.82;;;3.55;;
41755;SDS011;27435;48.480;9.258;2022-11-15T13:41:28;6.63;;;3.35;;
41755;SDS011;27435;48.480;9.258;2022-11-15T13:43:56;11.98;;;7.55;;
41755;SDS011;27435;48.480;9.258;2022-11-15T13:46:24;6.63;;;3.90;;
41755;SDS011;27435;48.480;9.258;2022-11-15T13:48:54;8.48;;;3.10;;
41755;SDS011;27435;48.480;9.258;2022-11-15T13:51:49;10.25;;;2.63;;
41755;SDS011;27435;48.480;9.258;2022-11-15T13:56:53;6.35;;;2.00;;
41755;SDS011;27435;48.480;9.258;2022-11-15T13:59:53;4.30;;;1.88;;
41755;SDS011;27435;48.480;9.258;2022-11-15T14:02:25;2.47;;;1.25;;
41755;SDS011;27435;48.480;9.258;2022-11-15T14:04:55;4.93;;;2.47;;
41755;SDS011;27435;48.480;9.258;2022-11-15T14:07:25;3.63;;;1.95;;
41755;SDS011;27435;48.480;9.258;2022-11-15T14:09:55;3.17;;;1.30;;
41755;SDS011;27435;48.480;9.258;2022-11-15T14:14:55;5.63;;;1.80;;
41755;SDS011;27435;48.480;9.258;2022-11-15T14:17:33;5.57;;;2.65;;
41755;SDS011;27435;48.480;9.258;2022-11-15T14:20:00;8.18;;;2.90;;
41755;SDS011;27435;48.480;9.258;2022-11-15T14:22:30;5.97;;;2.17;;
41755;SDS011;27435;48.480;9.258;2022-11-15T14:30:41;3.08;;;1.30;;
41755;SDS011;27435;48.480;9.258;2022-11-15T14:35:54;2.88;;;1.23;;
41755;SDS011;27435;48.480;9.258;2022-11-15T14:38:22;2.40;;;1.17;;
41755;SDS011;27435;48.480;9.258;2022-11-15T14:40:51;3.30;;;1.60;;
41755;SDS011;27435;48.480;9.258;2022-11-15T14:43:18;5.50;;;2.05;;
41755;SDS011;27435;48.480;9.258;2022-11-15T14:45:44;3.15;;;1.45;;
41755;SDS011;27435;48.480;9.258;2022-11-15T14:48:10;2.55;;;1.40;;
41755;SDS011;27435;48.480;9.258;2022-11-15T14:50:35;3.33;;;1.63;;
41755;SDS011;27435;48.480;9.258;2022-11-15T14:53:01;2.00;;;1.08;;
41755;SDS011;27435;48.480;9.258;2022-11-15T14:55:32;4.13;;;1.50;;
41755;SDS011;27435;48.480;9.258;2022-11-15T14:58:01;3.08;;;1.20;;
41755;SDS011;27435;48.480;9.258;2022-11-15T15:00:29;3.67;;;1.27;;
41755;SDS011;27435;48.480;9.258;2022-11-15T15:02:55;2.42;;;1.15;;
41755;SDS011;27435;48.480;9.258;2022-11-15T15:05:31;2.72;;;1.00;;
41755;SDS011;27435;48.480;9.258;2022-11-15T15:07:57;4.43;;;1.40;;
41755;SDS011;27435;48.480;9.258;2022-11-15T15:10:23;3.53;;;1.20;;
41755;SDS011;27435;48.480;9.258;2022-11-15T15:12:50;2.55;;;1.30;;
41755;SDS011;27435;48.480;9.258;2022-11-15T15:15:16;5.78;;;3.60;;
41755;SDS011;27435;48.480;9.258;2022-11-15T15:17:46;4.63;;;2.60;;
41755;SDS011;27435;48.480;9.258;2022-11-15T15:20:12;6.80;;;1.83;;
41755;SDS011;27435;48.480;9.258;2022-11-15T15:22:38;4.90;;;2.53;;
41755;SDS011;27435;48.480;9.258;2022-11-15T15:25:10;2.87;;;1.50;;
41755;SDS011;27435;48.480;9.258;2022-11-15T15:27:45;3.60;;;1.90;;
41755;SDS011;27435;48.480;9.258;2022-11-15T15:30:11;7.30;;;2.55;;
41755;SDS011;27435;48.480;9.258;2022-11-15T15:32:37;5.70;;;2.20;;
41755;SDS011;27435;48.480;9.258;2022-11-15T15:35:02;4.20;;;2.23;;
41755;SDS011;27435;48.480;9.258;2022-11-15T15:37:28;4.27;;;2.47;;
41755;SDS011;27435;48.480;9.258;2022-11-15T15:39:55;5.07;;;2.20;;
41755;SDS011;27435;48.480;9.258;2022-11-15T15:42:22;7.13;;;2.50;;
41755;SDS011;27435;48.480;9.258;2022-11-15T15:44:48;6.90;;;3.43;;
41755;SDS011;27435;48.480;9.258;2022-11-15T15:47:21;9.13;;;3.80;;
41755;SDS011;27435;48.480;9.258;2022-11-15T15:49:48;8.43;;;3.27;;
41755;SDS011;27435;48.480;9.258;2022-11-15T15:52:15;5.30;;;2.97;;
41755;SDS011;27435;48.480;9.258;2022-11-15T15:54:41;7.77;;;2.80;;
41755;SDS011;27435;48.480;9.258;2022-11-15T15:57:07;3.97;;;2.20;;
41755;SDS011;27435;48.480;9.258;2022-11-15T15:59:35;6.17;;;1.83;;
41755;SDS011;27435;48.480;9.258;2022-11-15T16:02:01;2.80;;;1.47;;
41755;SDS011;27435;48.480;9.258;2022-11-15T16:04:27;4.30;;;2.00;;
41755;SDS011;27435;48.480;9.258;2022-11-15T16:06:57;3.77;;;1.53;;
41755;SDS011;27435;48.480;9.258;2022-11-15T16:09:23;1.80;;;1.00;;
41755;SDS011;27435;48.480;9.258;2022-11-15T16:12:09;4.53;;;1.45;;
41755;SDS011;27435;48.480;9.258;2022-11-15T16:14:35;2.40;;;1.00;;
41755;SDS011;27435;48.480;9.258;2022-11-15T16:17:01;3.07;;;1.10;;
41755;SDS011;27435;48.480;9.258;2022-11-15T16:19:27;2.10;;;1.00;;
41755;SDS011;27435;48.480;9.258;2022-11-15T16:21:52;2.27;;;1.20;;
41755;SDS011;27435;48.480;9.258;2022-11-15T16:24:18;5.07;;;1.70;;
41755;SDS011;27435;48.480;9.258;2022-11-15T16:26:44;5.10;;;2.10;;
41755;SDS011;27435;48.480;9.258;2022-11-15T16:29:11;6.97;;;1.60;;
41755;SDS011;27435;48.480;9.258;2022-11-15T16:31:37;4.60;;;2.07;;
41755;SDS011;27435;48.480;9.258;2022-11-15T16:34:03;4.63;;;2.10;;
41755;SDS011;27435;48.480;9.258;2022-11-15T16:36:30;7.67;;;2.27;;
41755;SDS011;27435;48.480;9.258;2022-11-15T16:38:57;7.80;;;2.97;;
41755;SDS011;27435;48.480;9.258;2022-11-15T16:41:23;4.17;;;2.60;;
41755;SDS011;27435;48.480;9.258;2022-11-15T16:43:49;7.97;;;3.23;;
41755;SDS011;27435;48.480;9.258;2022-11-15T16:46:19;5.70;;;3.17;;
41755;SDS011;27435;48.480;9.258;2022-11-15T16:48:46;5.40;;;3.30;;
41755;SDS011;27435;48.480;9.258;2022-11-15T16:51:13;6.77;;;4.03;;
41755;SDS011;27435;48.480;9.258;2022-11-15T16:53:39;6.13;;;4.10;;
41755;SDS011;27435;48.480;9.258;2022-11-15T16:56:24;5.50;;;3.67;;
41755;SDS011;27435;48.480;9.258;2022-11-15T16:58:52;9.67;;;3.77;;
41755;SDS011;27435;48.480;9.258;2022-11-15T17:01:29;10.73;;;4.43;;
41755;SDS011;27435;48.480;9.258;2022-11-15T17:03:56;6.37;;;3.77;;
41755;SDS011;27435;48.480;9.258;2022-11-15T17:06:22;5.47;;;3.90;;
41755;SDS011;27435;48.480;9.258;2022-11-15T17:08:49;6.90;;;3.13;;
41755;SDS011;27435;48.480;9.258;2022-11-15T17:11:16;5.67;;;3.33;;
41755;SDS011;27435;48.480;9.258;2022-11-15T17:13:44;4.77;;;3.07;;
41755;SDS011;27435;48.480;9.258;2022-11-15T17:16:11;7.90;;;3.97;;